Time;durP1;ratioP1;P1;durP2;ratioP2;P2;SDS_P1;SDS_P2;PMS_P1;PMS_P2;Temp;Humidity;BMP_temperature;BMP_pressure;BME280_temperature;BME280_humidity;BME280_pressure;Samples;Min_cycle;Max_cycle;Signal;HPM_P1;HPM_P2
2022/06/27 00:01:17;;;;;;;3.92;1.80;;;;;;;;;;5055841;28;20029;-72
2022/06/27 00:03:43;;;;;;;4.28;1.85;;;;;;;;;;5062238;28;20028;-72
2022/06/27 00:06:09;;;;;;;4.30;2.00;;;;;;;;;;5065078;28;20021;-72
2022/06/27 00:08:35;;;;;;;4.80;1.92;;;;;;;;;;5067534;28;20040;-72
2022/06/27 00:11:02;;;;;;;4.10;2.47;;;;;;;;;;5062885;28;20101;-72
2022/06/27 00:13:28;;;;;;;5.63;2.00;;;;;;;;;;5055670;28;20029;-70
2022/06/27 00:15:53;;;;;;;3.38;1.83;;;;;;;;;;5055323;28;20031;-73
2022/06/27 00:18:19;;;;;;;5.35;2.05;;;;;;;;;;5055665;28;20025;-72
2022/06/27 00:20:45;;;;;;;4.72;2.22;;;;;;;;;;5055813;28;20035;-72
2022/06/27 00:23:11;;;;;;;4.70;2.25;;;;;;;;;;5055812;28;20363;-73
2022/06/27 00:25:37;;;;;;;6.45;2.30;;;;;;;;;;5057518;28;20036;-72
2022/06/27 00:28:03;;;;;;;4.28;2.30;;;;;;;;;;5059229;28;20025;-73
2022/06/27 00:30:29;;;;;;;4.78;2.47;;;;;;;;;;5058323;28;20078;-72
2022/06/27 00:32:55;;;;;;;4.72;2.15;;;;;;;;;;5055436;28;20112;-72
2022/06/27 00:35:21;;;;;;;6.38;2.20;;;;;;;;;;5055523;28;20132;-72
2022/06/27 00:37:47;;;;;;;7.72;2.67;;;;;;;;;;5055409;28;20021;-71
2022/06/27 00:40:14;;;;;;;6.20;2.35;;;;;;;;;;5055459;28;20139;-72
2022/06/27 00:42:40;;;;;;;3.88;2.38;;;;;;;;;;5053846;28;20115;-72
2022/06/27 00:45:06;;;;;;;6.60;2.45;;;;;;;;;;5055111;28;20565;-73
2022/06/27 00:47:32;;;;;;;6.35;2.90;;;;;;;;;;5055035;28;20505;-73
2022/06/27 00:49:58;;;;;;;4.47;2.38;;;;;;;;;;5055140;28;20025;-72
2022/06/27 00:52:24;;;;;;;5.05;2.60;;;;;;;;;;5055108;28;20024;-72
2022/06/27 00:54:50;;;;;;;4.78;2.50;;;;;;;;;;5055178;28;20031;-72
2022/06/27 00:57:17;;;;;;;6.00;2.40;;;;;;;;;;5055280;28;20079;-73
2022/06/27 00:59:44;;;;;;;8.10;2.60;;;;;;;;;;5055052;28;20033;-72
2022/06/27 01:02:10;;;;;;;6.38;2.55;;;;;;;;;;5054835;28;20504;-72
2022/06/27 01:04:36;;;;;;;8.63;3.28;;;;;;;;;;5054799;28;20135;-74
2022/06/27 01:07:03;;;;;;;4.30;2.30;;;;;;;;;;5054586;28;20438;-73
2022/06/27 01:09:29;;;;;;;5.95;2.30;;;;;;;;;;5054680;28;20060;-72
2022/06/27 01:11:55;;;;;;;5.68;3.03;;;;;;;;;;5054634;28;20021;-73
2022/06/27 01:14:21;;;;;;;5.13;2.75;;;;;;;;;;5053487;28;20039;-72
2022/06/27 01:16:47;;;;;;;7.25;3.33;;;;;;;;;;5054364;28;20104;-72
2022/06/27 01:19:14;;;;;;;7.22;2.65;;;;;;;;;;5054586;28;20027;-73
2022/06/27 01:21:41;;;;;;;5.95;2.45;;;;;;;;;;5054854;28;20029;-72
2022/06/27 01:24:07;;;;;;;4.40;2.70;;;;;;;;;;5054459;28;20041;-72
2022/06/27 01:26:33;;;;;;;4.55;2.60;;;;;;;;;;5054353;28;20491;-73
2022/06/27 01:28:59;;;;;;;10.23;2.65;;;;;;;;;;5054358;28;20421;-71
2022/06/27 01:31:27;;;;;;;5.95;2.50;;;;;;;;;;5054390;28;20021;-73
2022/06/27 01:33:53;;;;;;;6.57;2.30;;;;;;;;;;5054384;28;20355;-73
2022/06/27 01:39:04;;;;;;;9.57;3.45;;;;;;;;;;5056626;28;20589;-73
2022/06/27 01:41:30;;;;;;;8.05;3.80;;;;;;;;;;5055149;28;20029;-72
2022/06/27 01:43:56;;;;;;;5.05;3.15;;;;;;;;;;5054614;28;20397;-72
2022/06/27 01:46:22;;;;;;;8.35;3.20;;;;;;;;;;5055748;28;20415;-73
2022/06/27 01:48:47;;;;;;;8.95;3.30;;;;;;;;;;5055083;28;20032;-72
2022/06/27 01:51:14;;;;;;;10.63;3.47;;;;;;;;;;5054000;28;20025;-72
2022/06/27 01:53:40;;;;;;;6.38;2.83;;;;;;;;;;5055068;28;20052;-73
2022/06/27 01:56:06;;;;;;;6.72;2.60;;;;;;;;;;5053581;28;20104;-73
2022/06/27 01:58:33;;;;;;;9.35;2.40;;;;;;;;;;5052971;28;20059;-72
2022/06/27 02:00:59;;;;;;;6.68;2.60;;;;;;;;;;5052559;28;20112;-72
2022/06/27 02:03:25;;;;;;;8.30;2.28;;;;;;;;;;5053700;28;20132;-72
2022/06/27 02:05:54;;;;;;;4.78;2.30;;;;;;;;;;5053486;28;20029;-73
2022/06/27 02:08:21;;;;;;;5.50;2.58;;;;;;;;;;5053793;28;20047;-73
2022/06/27 02:10:47;;;;;;;8.68;2.40;;;;;;;;;;5053907;28;20036;-72
2022/06/27 02:13:13;;;;;;;8.43;2.60;;;;;;;;;;5053552;28;20520;-71
2022/06/27 02:15:58;;;;;;;6.40;2.75;;;;;;;;;;5054993;28;20025;-73
2022/06/27 02:18:24;;;;;;;5.68;2.50;;;;;;;;;;5054914;28;20075;-73
2022/06/27 02:20:50;;;;;;;7.55;2.78;;;;;;;;;;5055113;28;20032;-72
2022/06/27 02:23:16;;;;;;;6.75;2.67;;;;;;;;;;5053795;28;20492;-75
2022/06/27 02:25:42;;;;;;;9.57;3.28;;;;;;;;;;5053310;28;20056;-73
2022/06/27 02:28:08;;;;;;;8.70;3.28;;;;;;;;;;5053261;28;20025;-73
2022/06/27 02:30:33;;;;;;;9.38;3.15;;;;;;;;;;5053344;28;20027;-73
2022/06/27 02:32:59;;;;;;;7.18;3.08;;;;;;;;;;5053615;28;20029;-74
2022/06/27 02:35:27;;;;;;;5.93;3.22;;;;;;;;;;5053689;28;20057;-75
2022/06/27 02:37:53;;;;;;;6.85;3.10;;;;;;;;;;5059927;28;20105;-74
2022/06/27 02:40:19;;;;;;;4.25;2.63;;;;;;;;;;5056665;28;20032;-73
2022/06/27 02:42:46;;;;;;;8.65;2.72;;;;;;;;;;5057148;28;20047;-73
2022/06/27 02:45:12;;;;;;;9.90;3.05;;;;;;;;;;5071094;28;20033;-71
2022/06/27 02:47:39;;;;;;;7.35;2.42;;;;;;;;;;5075484;28;20005;-72
2022/06/27 02:50:05;;;;;;;9.45;3.10;;;;;;;;;;5053452;28;20075;-74
2022/06/27 02:52:35;;;;;;;12.90;3.00;;;;;;;;;;5051298;28;20029;-74
2022/06/27 02:55:06;;;;;;;7.35;3.00;;;;;;;;;;5052838;28;20028;-73
2022/06/27 02:57:35;;;;;;;7.88;3.20;;;;;;;;;;5051976;28;20029;-73
2022/06/27 03:00:01;;;;;;;7.95;2.97;;;;;;;;;;5053110;28;20028;-74
2022/06/27 03:02:28;;;;;;;5.25;2.90;;;;;;;;;;5052685;28;20025;-74
2022/06/27 03:04:55;;;;;;;7.35;3.03;;;;;;;;;;5053293;28;20032;-74
2022/06/27 03:07:21;;;;;;;7.75;2.55;;;;;;;;;;5051786;28;20021;-73
2022/06/27 03:09:48;;;;;;;6.55;3.05;;;;;;;;;;5051263;28;20024;-73
2022/06/27 03:12:14;;;;;;;7.05;2.50;;;;;;;;;;5052097;28;20602;-76
2022/06/27 03:14:40;;;;;;;6.95;2.55;;;;;;;;;;5052344;28;20029;-73
2022/06/27 03:17:06;;;;;;;8.05;2.55;;;;;;;;;;5051665;28;20028;-73
2022/06/27 03:19:32;;;;;;;10.75;2.70;;;;;;;;;;5052093;28;20036;-73
2022/06/27 03:21:58;;;;;;;11.98;3.03;;;;;;;;;;5051998;28;20044;-74
2022/06/27 03:24:24;;;;;;;5.30;2.45;;;;;;;;;;5051917;28;20133;-74
2022/06/27 03:26:50;;;;;;;6.97;2.42;;;;;;;;;;5051907;28;20039;-73
2022/06/27 03:29:16;;;;;;;5.28;2.55;;;;;;;;;;5052110;28;20025;-73
2022/06/27 03:31:42;;;;;;;7.70;2.60;;;;;;;;;;5052137;28;20021;-74
2022/06/27 03:34:08;;;;;;;7.78;2.78;;;;;;;;;;5050827;28;20498;-74
2022/06/27 03:36:34;;;;;;;6.65;2.50;;;;;;;;;;5051107;28;20032;-74
2022/06/27 03:39:00;;;;;;;5.53;2.50;;;;;;;;;;5051837;28;20029;-74
2022/06/27 03:41:26;;;;;;;6.05;2.08;;;;;;;;;;5051943;28;20115;-73
2022/06/27 03:43:52;;;;;;;9.10;2.90;;;;;;;;;;5051990;28;20029;-74
2022/06/27 03:46:18;;;;;;;7.55;3.00;;;;;;;;;;5051670;28;20037;-74
2022/06/27 03:51:28;;;;;;;11.80;2.70;;;;;;;;;;5052243;28;20444;-75
2022/06/27 03:53:55;;;;;;;9.43;3.05;;;;;;;;;;5054480;28;20056;-74
2022/06/27 03:56:21;;;;;;;9.75;3.63;;;;;;;;;;5056617;28;20116;-74
2022/06/27 03:58:46;;;;;;;10.15;3.97;;;;;;;;;;5051219;28;20067;-75
2022/06/27 04:01:12;;;;;;;11.90;4.00;;;;;;;;;;5052267;28;20504;-74
2022/06/27 04:03:38;;;;;;;11.43;4.22;;;;;;;;;;5052316;28;20032;-73
2022/06/27 04:06:04;;;;;;;8.88;3.30;;;;;;;;;;5052334;28;20021;-73
2022/06/27 04:08:30;;;;;;;6.82;3.00;;;;;;;;;;5052075;28;20385;-74
2022/06/27 04:10:56;;;;;;;7.88;3.55;;;;;;;;;;5051800;28;20494;-74
2022/06/27 04:13:22;;;;;;;8.55;3.50;;;;;;;;;;5052085;28;20025;-75
2022/06/27 04:15:48;;;;;;;12.70;3.53;;;;;;;;;;5052008;28;20393;-73
2022/06/27 04:18:14;;;;;;;12.02;3.60;;;;;;;;;;5052010;28;20461;-73
2022/06/27 04:20:42;;;;;;;7.53;3.38;;;;;;;;;;5051920;28;20108;-73
2022/06/27 04:23:08;;;;;;;6.72;2.95;;;;;;;;;;5051720;28;20021;-73
2022/06/27 04:25:34;;;;;;;6.93;3.50;;;;;;;;;;5051369;28;20021;-73
2022/06/27 04:28:00;;;;;;;5.75;2.90;;;;;;;;;;5051893;28;20125;-74
2022/06/27 04:30:27;;;;;;;15.38;5.57;;;;;;;;;;5051693;28;20564;-74
2022/06/27 04:32:53;;;;;;;12.15;3.67;;;;;;;;;;5052953;28;20021;-74
2022/06/27 04:35:20;;;;;;;11.65;3.95;;;;;;;;;;5051168;28;20509;-75
2022/06/27 04:37:47;;;;;;;10.25;3.92;;;;;;;;;;5051592;28;20029;-75
2022/06/27 04:40:13;;;;;;;6.15;3.42;;;;;;;;;;5051720;28;20390;-75
2022/06/27 04:42:42;;;;;;;9.13;3.42;;;;;;;;;;5051729;28;20076;-74
2022/06/27 04:45:09;;;;;;;9.60;3.67;;;;;;;;;;5051299;28;20385;-73
2022/06/27 04:47:35;;;;;;;6.65;3.13;;;;;;;;;;5052743;28;20509;-74
2022/06/27 04:50:02;;;;;;;13.90;3.50;;;;;;;;;;5055832;28;20485;-75
2022/06/27 04:52:28;;;;;;;14.27;3.95;;;;;;;;;;5056715;28;20533;-73
2022/06/27 04:54:54;;;;;;;11.68;3.65;;;;;;;;;;5055591;28;20064;-74
2022/06/27 04:57:21;;;;;;;9.30;3.40;;;;;;;;;;5055380;28;20025;-74
2022/06/27 04:59:48;;;;;;;19.20;5.47;;;;;;;;;;5055361;28;20036;-74
2022/06/27 05:02:14;;;;;;;5.90;3.97;;;;;;;;;;5055451;28;20055;-73
2022/06/27 05:04:40;;;;;;;7.68;3.45;;;;;;;;;;5055379;28;20545;-75
2022/06/27 05:07:06;;;;;;;10.40;3.53;;;;;;;;;;5053922;28;20450;-74
2022/06/27 05:09:32;;;;;;;12.02;4.07;;;;;;;;;;5055527;28;20159;-74
2022/06/27 05:11:58;;;;;;;11.93;3.50;;;;;;;;;;5060772;28;20408;-74
2022/06/27 05:14:24;;;;;;;7.35;3.63;;;;;;;;;;5065142;28;20029;-74
2022/06/27 05:16:50;;;;;;;20.02;7.90;;;;;;;;;;5065068;28;20386;-74
2022/06/27 05:19:16;;;;;;;11.98;3.90;;;;;;;;;;5067224;28;20056;-73
2022/06/27 05:21:43;;;;;;;10.23;3.35;;;;;;;;;;5065834;28;20029;-73
2022/06/27 05:24:09;;;;;;;9.75;4.65;;;;;;;;;;5067259;28;20025;-74
2022/06/27 05:26:35;;;;;;;10.90;3.80;;;;;;;;;;5062157;28;20021;-75
2022/06/27 05:29:04;;;;;;;11.10;4.28;;;;;;;;;;5058765;28;20029;-74
2022/06/27 05:31:30;;;;;;;10.98;4.85;;;;;;;;;;5055711;28;20099;-73
2022/06/27 05:33:55;;;;;;;7.03;3.85;;;;;;;;;;5054674;28;20428;-73
2022/06/27 05:36:21;;;;;;;10.15;4.10;;;;;;;;;;5054343;28;20078;-73
2022/06/27 05:38:48;;;;;;;10.90;4.10;;;;;;;;;;5054352;28;20025;-74
2022/06/27 05:41:14;;;;;;;6.57;3.60;;;;;;;;;;5054762;28;20498;-75
2022/06/27 05:43:41;;;;;;;7.95;3.80;;;;;;;;;;5054223;28;20025;-75
2022/06/27 05:46:07;;;;;;;11.45;5.10;;;;;;;;;;5054285;28;20055;-76
2022/06/27 05:48:33;;;;;;;23.70;6.53;;;;;;;;;;5054243;28;20028;-74
2022/06/27 05:50:59;;;;;;;10.38;4.90;;;;;;;;;;5054535;28;20028;-74
2022/06/27 05:53:27;;;;;;;9.50;4.50;;;;;;;;;;5054447;28;20059;-74
2022/06/27 05:55:53;;;;;;;8.20;4.45;;;;;;;;;;5054451;28;20449;-75
2022/06/27 05:58:19;;;;;;;9.77;4.97;;;;;;;;;;5052972;28;20029;-72
2022/06/27 06:00:45;;;;;;;10.60;4.25;;;;;;;;;;5053859;28;20029;-72
2022/06/27 06:03:11;;;;;;;11.75;4.85;;;;;;;;;;5054482;28;20025;-72
2022/06/27 06:05:37;;;;;;;12.85;4.78;;;;;;;;;;5055044;28;20021;-73
2022/06/27 06:08:04;;;;;;;9.70;4.50;;;;;;;;;;5053801;28;20032;-74
2022/06/27 06:10:31;;;;;;;14.45;5.07;;;;;;;;;;5055614;28;20024;-72
2022/06/27 06:12:58;;;;;;;10.73;4.28;;;;;;;;;;5055131;28;20060;-71
2022/06/27 06:15:24;;;;;;;9.27;4.20;;;;;;;;;;5054709;28;20044;-73
2022/06/27 06:17:50;;;;;;;9.82;4.22;;;;;;;;;;5054789;28;20044;-72
2022/06/27 06:20:16;;;;;;;7.22;3.65;;;;;;;;;;5054603;28;20021;-72
2022/06/27 06:22:44;;;;;;;11.57;4.35;;;;;;;;;;5057615;28;20031;-72
2022/06/27 06:25:10;;;;;;;10.85;4.30;;;;;;;;;;5051287;28;20386;-72
2022/06/27 06:27:40;;;;;;;7.70;4.43;;;;;;;;;;5052793;28;20423;-72
2022/06/27 06:30:06;;;;;;;9.30;4.50;;;;;;;;;;5053022;28;20045;-72
2022/06/27 06:32:34;;;;;;;12.10;4.45;;;;;;;;;;5053088;28;20017;-72
2022/06/27 06:35:00;;;;;;;8.43;4.07;;;;;;;;;;5054090;28;20382;-74
2022/06/27 06:37:27;;;;;;;11.00;4.50;;;;;;;;;;5053670;28;20074;-73
2022/06/27 06:39:54;;;;;;;12.75;4.72;;;;;;;;;;5053303;28;20363;-72
2022/06/27 06:42:20;;;;;;;11.88;4.43;;;;;;;;;;5052076;28;20036;-72
2022/06/27 06:44:46;;;;;;;12.38;5.32;;;;;;;;;;5053493;28;20027;-73
2022/06/27 06:47:16;;;;;;;11.60;4.78;;;;;;;;;;5053012;28;20021;-73
2022/06/27 06:49:43;;;;;;;10.32;4.82;;;;;;;;;;5053542;28;20441;-71
2022/06/27 06:52:09;;;;;;;20.52;6.10;;;;;;;;;;5053648;28;20044;-71
2022/06/27 06:54:36;;;;;;;9.63;4.80;;;;;;;;;;5052856;28;20025;-72
2022/06/27 06:57:02;;;;;;;10.32;5.28;;;;;;;;;;5053098;28;20025;-72
2022/06/27 06:59:28;;;;;;;11.20;5.40;;;;;;;;;;5053895;28;20032;-73
2022/06/27 07:01:55;;;;;;;13.30;6.32;;;;;;;;;;5053233;28;20028;-73
2022/06/27 07:04:20;;;;;;;12.27;5.68;;;;;;;;;;5054070;28;20025;-76
2022/06/27 07:06:47;;;;;;;8.90;5.82;;;;;;;;;;5054039;28;20158;-72
2022/06/27 07:09:12;;;;;;;9.90;5.82;;;;;;;;;;5053562;28;20079;-72
2022/06/27 07:11:40;;;;;;;17.30;6.22;;;;;;;;;;5052530;28;20462;-73
2022/06/27 07:14:06;;;;;;;10.75;6.18;;;;;;;;;;5052823;28;20021;-70
2022/06/27 07:16:33;;;;;;;15.55;6.47;;;;;;;;;;5051890;28;20032;-71
2022/06/27 07:19:03;;;;;;;20.88;6.38;;;;;;;;;;5052052;28;20086;-70
2022/06/27 07:21:31;;;;;;;18.67;6.15;;;;;;;;;;5052358;28;20036;-70
2022/06/27 07:23:57;;;;;;;12.57;6.38;;;;;;;;;;5053377;28;20025;-70
2022/06/27 07:26:24;;;;;;;13.25;7.07;;;;;;;;;;5051807;28;20110;-71
2022/06/27 07:28:51;;;;;;;11.75;5.93;;;;;;;;;;5052789;28;20045;-73
2022/06/27 07:31:18;;;;;;;10.52;6.40;;;;;;;;;;5053104;28;20496;-71
2022/06/27 07:33:45;;;;;;;15.55;5.35;;;;;;;;;;5054907;28;20028;-72
2022/06/27 07:36:14;;;;;;;11.55;7.00;;;;;;;;;;5052481;28;20033;-71
2022/06/27 07:38:41;;;;;;;14.43;6.47;;;;;;;;;;5052027;28;20055;-72
2022/06/27 07:41:08;;;;;;;18.98;7.18;;;;;;;;;;5052186;28;20025;-70
2022/06/27 07:43:35;;;;;;;12.15;6.60;;;;;;;;;;5051982;28;20025;-70
2022/06/27 07:46:01;;;;;;;20.15;6.85;;;;;;;;;;5051916;28;20021;-73
2022/06/27 07:48:28;;;;;;;13.57;6.90;;;;;;;;;;5052088;28;20480;-70
2022/06/27 07:50:55;;;;;;;18.90;9.77;;;;;;;;;;5052909;28;20025;-71
2022/06/27 07:53:22;;;;;;;19.02;9.75;;;;;;;;;;5056453;28;20100;-71
2022/06/27 07:55:55;;;;;;;20.55;7.53;;;;;;;;;;5057450;28;20048;-71
2022/06/27 07:58:30;;;;;;;14.23;7.60;;;;;;;;;;5059517;28;20021;-71
2022/06/27 08:00:56;;;;;;;18.10;6.45;;;;;;;;;;5056014;28;20031;-70
2022/06/27 08:06:09;;;;;;;;;;;;;;;;;;5058226;28;20422;-72
2022/06/27 08:08:37;;;;;;;15.43;6.82;;;;;;;;;;5053892;28;19915;-72
2022/06/27 08:11:03;;;;;;;13.90;6.40;;;;;;;;;;5052901;28;20021;-71
2022/06/27 08:13:31;;;;;;;16.27;7.45;;;;;;;;;;5051760;28;20021;-71
2022/06/27 08:15:57;;;;;;;19.40;9.65;;;;;;;;;;5051237;28;20104;-72
2022/06/27 08:18:23;;;;;;;14.05;7.90;;;;;;;;;;5052105;28;20378;-70
2022/06/27 08:20:49;;;;;;;16.60;6.88;;;;;;;;;;5052875;28;20029;-71
2022/06/27 08:23:16;;;;;;;16.13;9.18;;;;;;;;;;5054647;28;20619;-71
2022/06/27 08:25:42;;;;;;;13.98;7.85;;;;;;;;;;5056016;28;20086;-70
2022/06/27 08:28:09;;;;;;;15.25;7.10;;;;;;;;;;5055613;28;20024;-71
2022/06/27 08:30:36;;;;;;;16.58;8.40;;;;;;;;;;5056820;28;20052;-70
2022/06/27 08:33:02;;;;;;;19.08;8.90;;;;;;;;;;5057068;28;20478;-70
2022/06/27 08:35:29;;;;;;;16.05;8.52;;;;;;;;;;5054908;28;20040;-72
2022/06/27 08:37:56;;;;;;;16.05;9.40;;;;;;;;;;5054887;28;20021;-71
2022/06/27 08:40:22;;;;;;;16.45;8.95;;;;;;;;;;5056919;28;20104;-72
2022/06/27 08:42:48;;;;;;;16.15;7.65;;;;;;;;;;5056525;28;20100;-73
2022/06/27 08:45:16;;;;;;;15.90;7.80;;;;;;;;;;5056106;28;20029;-71
2022/06/27 08:47:43;;;;;;;17.77;9.55;;;;;;;;;;5055572;28;20080;-71
2022/06/27 08:50:10;;;;;;;19.27;8.57;;;;;;;;;;5055325;28;20032;-70
2022/06/27 08:52:39;;;;;;;25.23;9.52;;;;;;;;;;5054863;28;20017;-72
2022/06/27 08:55:08;;;;;;;19.85;9.02;;;;;;;;;;5053946;28;20554;-71
2022/06/27 08:57:36;;;;;;;13.85;7.75;;;;;;;;;;5054482;28;20029;-71
2022/06/27 09:00:04;;;;;;;21.70;9.25;;;;;;;;;;5054999;28;20033;-70
2022/06/27 09:02:30;;;;;;;14.73;8.25;;;;;;;;;;5054854;28;20488;-71
2022/06/27 09:05:02;;;;;;;16.38;8.93;;;;;;;;;;5055152;28;20037;-70
2022/06/27 09:07:46;;;;;;;14.07;7.85;;;;;;;;;;5054778;28;20108;-70
2022/06/27 09:10:25;;;;;;;13.02;8.65;;;;;;;;;;5054714;28;20505;-71
2022/06/27 09:12:58;;;;;;;20.17;9.55;;;;;;;;;;5054775;28;20100;-70
2022/06/27 09:15:29;;;;;;;18.38;9.48;;;;;;;;;;5054475;28;20489;-70
2022/06/27 09:18:00;;;;;;;21.17;10.35;;;;;;;;;;5054487;28;20040;-71
2022/06/27 09:20:45;;;;;;;18.15;10.60;;;;;;;;;;5054689;28;20490;-72
2022/06/27 09:23:31;;;;;;;20.92;11.85;;;;;;;;;;5055531;28;20474;-71
2022/06/27 09:26:01;;;;;;;21.27;12.55;;;;;;;;;;5054565;28;20394;-71
2022/06/27 09:28:39;;;;;;;24.50;13.00;;;;;;;;;;5054707;28;20047;-71
2022/06/27 09:31:06;;;;;;;21.88;12.77;;;;;;;;;;5054132;28;20031;-71
2022/06/27 09:33:32;;;;;;;20.75;12.15;;;;;;;;;;5054049;28;20127;-72
2022/06/27 09:35:58;;;;;;;21.92;12.90;;;;;;;;;;5056784;28;20494;-72
2022/06/27 09:38:25;;;;;;;21.23;13.38;;;;;;;;;;5055572;28;20075;-74
2022/06/27 09:40:51;;;;;;;22.17;13.98;;;;;;;;;;5054295;28;20029;-71
2022/06/27 09:43:17;;;;;;;21.83;13.07;;;;;;;;;;5054448;28;20033;-71
2022/06/27 09:45:43;;;;;;;24.85;13.13;;;;;;;;;;5054129;28;20024;-71
2022/06/27 09:48:10;;;;;;;24.23;13.80;;;;;;;;;;5054228;28;20021;-72
2022/06/27 09:50:39;;;;;;;26.67;13.18;;;;;;;;;;5054448;28;20432;-72
2022/06/27 09:53:05;;;;;;;20.60;12.77;;;;;;;;;;5054183;28;20219;-71
2022/06/27 09:55:32;;;;;;;23.67;12.60;;;;;;;;;;5053621;28;20040;-71
2022/06/27 09:58:00;;;;;;;25.90;13.98;;;;;;;;;;5053683;28;20017;-72
2022/06/27 10:00:27;;;;;;;28.25;14.25;;;;;;;;;;5053659;28;20036;-71
2022/06/27 10:02:53;;;;;;;24.15;14.40;;;;;;;;;;5053765;28;20029;-71
2022/06/27 10:05:19;;;;;;;31.45;17.25;;;;;;;;;;5053365;28;20017;-72
2022/06/27 10:07:59;;;;;;;26.00;14.60;;;;;;;;;;5055956;28;20025;-72
2022/06/27 10:10:29;;;;;;;28.98;15.05;;;;;;;;;;5053497;28;20021;-72
2022/06/27 10:12:59;;;;;;;26.02;15.07;;;;;;;;;;5053331;28;20020;-74
2022/06/27 10:15:26;;;;;;;26.75;14.60;;;;;;;;;;5053272;28;20070;-72
2022/06/27 10:17:53;;;;;;;29.85;15.68;;;;;;;;;;5057324;28;20528;-76
2022/06/27 10:20:29;;;;;;;27.45;14.95;;;;;;;;;;5055020;28;20028;-74
2022/06/27 10:23:04;;;;;;;26.85;14.95;;;;;;;;;;5052943;28;20033;-74
2022/06/27 10:25:30;;;;;;;36.92;17.02;;;;;;;;;;5054966;28;20044;-74
2022/06/27 10:28:06;;;;;;;26.15;15.02;;;;;;;;;;5055984;28;20024;-76
2022/06/27 10:30:44;;;;;;;25.65;16.05;;;;;;;;;;5056883;28;20021;-75
2022/06/27 10:33:35;;;;;;;28.25;14.95;;;;;;;;;;5063061;28;20028;-71
2022/06/27 10:36:13;;;;;;;26.33;14.80;;;;;;;;;;5062657;28;20478;-71
2022/06/27 10:38:39;;;;;;;30.15;14.07;;;;;;;;;;5063356;28;20024;-72
2022/06/27 10:41:06;;;;;;;28.73;15.15;;;;;;;;;;5063153;28;20025;-72
2022/06/27 10:43:41;;;;;;;25.92;15.73;;;;;;;;;;5061856;28;20029;-72
2022/06/27 10:46:10;;;;;;;25.33;15.20;;;;;;;;;;5056195;28;20013;-71
2022/06/27 10:48:37;;;;;;;24.38;15.20;;;;;;;;;;5052849;28;20024;-71
2022/06/27 10:51:18;;;;;;;27.77;14.98;;;;;;;;;;5053340;28;20033;-72
2022/06/27 10:53:48;;;;;;;26.02;14.68;;;;;;;;;;5053175;28;20049;-72
2022/06/27 10:56:29;;;;;;;28.85;15.07;;;;;;;;;;5054601;28;20063;-72
2022/06/27 10:58:55;;;;;;;23.13;13.77;;;;;;;;;;5056647;28;20080;-72
2022/06/27 11:01:21;;;;;;;26.85;15.05;;;;;;;;;;5057092;28;20029;-71
2022/06/27 11:03:48;;;;;;;22.42;13.88;;;;;;;;;;5052692;28;20036;-72
2022/06/27 11:06:14;;;;;;;23.73;15.10;;;;;;;;;;5053150;28;20079;-71
2022/06/27 11:08:40;;;;;;;27.05;14.80;;;;;;;;;;5053128;28;20471;-71
2022/06/27 11:11:07;;;;;;;24.67;15.45;;;;;;;;;;5053079;28;20028;-71
2022/06/27 11:13:37;;;;;;;32.38;16.92;;;;;;;;;;5051011;28;20029;-71
2022/06/27 11:16:03;;;;;;;25.00;14.68;;;;;;;;;;5051508;28;20035;-73
2022/06/27 11:18:40;;;;;;;34.25;17.05;;;;;;;;;;5052029;28;20028;-71
2022/06/27 11:21:06;;;;;;;27.17;16.13;;;;;;;;;;5051491;28;20033;-72
2022/06/27 11:23:47;;;;;;;27.20;16.67;;;;;;;;;;5052070;28;21993;-71
2022/06/27 11:26:13;;;;;;;30.60;17.45;;;;;;;;;;5050450;28;20021;-72
2022/06/27 11:34:09;;;;;;;25.08;16.23;;;;;;;;;;5056973;28;20103;-71
2022/06/27 11:36:37;;;;;;;26.92;15.13;;;;;;;;;;5052471;28;20029;-71
2022/06/27 11:39:03;;;;;;;28.13;17.33;;;;;;;;;;5052201;28;20100;-73
2022/06/27 11:41:32;;;;;;;25.10;14.60;;;;;;;;;;5051705;28;20028;-71
2022/06/27 11:44:02;;;;;;;21.38;13.77;;;;;;;;;;5051577;28;20017;-71
2022/06/27 11:46:28;;;;;;;21.67;13.07;;;;;;;;;;5050882;28;20028;-72
2022/06/27 11:48:55;;;;;;;24.13;12.50;;;;;;;;;;5052176;28;20025;-71
2022/06/27 11:51:25;;;;;;;22.63;12.02;;;;;;;;;;5051319;28;20516;-71
2022/06/27 11:53:55;;;;;;;23.02;11.95;;;;;;;;;;5050843;28;20028;-71
2022/06/27 11:56:25;;;;;;;20.20;12.48;;;;;;;;;;5050148;28;20025;-73
2022/06/27 11:58:55;;;;;;;27.25;16.02;;;;;;;;;;5047627;28;20150;-71
2022/06/27 12:01:21;;;;;;;26.70;14.77;;;;;;;;;;5050709;28;20040;-72
2022/06/27 12:04:06;;;;;;;22.73;14.65;;;;;;;;;;5051193;28;20035;-73
2022/06/27 12:06:32;;;;;;;21.75;14.32;;;;;;;;;;5051300;28;20014;-73
2022/06/27 12:09:01;;;;;;;24.30;15.13;;;;;;;;;;5050902;28;20094;-73
2022/06/27 12:11:29;;;;;;;25.60;13.77;;;;;;;;;;5050481;28;20106;-71
2022/06/27 12:13:59;;;;;;;21.83;14.50;;;;;;;;;;5050714;28;20083;-73
2022/06/27 12:16:25;;;;;;;27.52;15.98;;;;;;;;;;5050024;28;20063;-72
2022/06/27 12:18:51;;;;;;;22.45;14.65;;;;;;;;;;5051730;28;20025;-72
2022/06/27 12:21:18;;;;;;;26.38;14.38;;;;;;;;;;5053381;28;20026;-74
2022/06/27 12:23:44;;;;;;;21.85;14.80;;;;;;;;;;5054173;28;20021;-72
2022/06/27 12:26:10;;;;;;;21.92;14.55;;;;;;;;;;5052045;28;20035;-72
2022/06/27 12:28:36;;;;;;;23.85;15.27;;;;;;;;;;5057445;28;20025;-70
2022/06/27 12:31:02;;;;;;;25.77;16.17;;;;;;;;;;5055560;28;20051;-72
2022/06/27 12:33:28;;;;;;;26.38;16.55;;;;;;;;;;5051093;28;20025;-71
2022/06/27 12:35:54;;;;;;;24.85;17.25;;;;;;;;;;5050911;28;20520;-70
2022/06/27 12:38:21;;;;;;;23.75;16.40;;;;;;;;;;5049791;28;20025;-71
2022/06/27 12:40:48;;;;;;;20.70;14.63;;;;;;;;;;5052304;28;20527;-71
2022/06/27 12:43:14;;;;;;;23.95;15.38;;;;;;;;;;5051859;28;20106;-71
2022/06/27 12:45:40;;;;;;;23.35;14.68;;;;;;;;;;5050321;28;20526;-71
2022/06/27 12:48:07;;;;;;;23.08;12.82;;;;;;;;;;5053766;28;20005;-71
2022/06/27 12:50:33;;;;;;;21.90;15.10;;;;;;;;;;5051244;28;20021;-70
2022/06/27 12:52:59;;;;;;;21.30;14.40;;;;;;;;;;5050954;28;20025;-74
2022/06/27 12:55:25;;;;;;;21.13;13.43;;;;;;;;;;5050785;28;20025;-71
2022/06/27 12:57:51;;;;;;;19.30;14.25;;;;;;;;;;5051104;28;20051;-69
2022/06/27 13:00:18;;;;;;;17.98;13.27;;;;;;;;;;5050644;28;20363;-70
2022/06/27 13:02:44;;;;;;;22.08;13.77;;;;;;;;;;5051017;28;20059;-70
2022/06/27 13:05:10;;;;;;;23.15;15.00;;;;;;;;;;5050799;28;20128;-70
2022/06/27 13:07:37;;;;;;;23.90;15.68;;;;;;;;;;5050972;28;20017;-71
2022/06/27 13:10:03;;;;;;;20.27;15.10;;;;;;;;;;5054825;28;20028;-71
2022/06/27 13:12:29;;;;;;;20.55;14.80;;;;;;;;;;5064925;28;20017;-69
2022/06/27 13:14:55;;;;;;;25.75;17.23;;;;;;;;;;5066706;28;20037;-71
2022/06/27 13:17:23;;;;;;;26.35;18.65;;;;;;;;;;5066283;28;20029;-71
2022/06/27 13:19:51;;;;;;;26.92;18.05;;;;;;;;;;5073687;28;20025;-71
2022/06/27 13:22:17;;;;;;;24.48;18.27;;;;;;;;;;5075608;28;20036;-72
2022/06/27 13:24:43;;;;;;;21.88;16.00;;;;;;;;;;5057583;28;20025;-72
2022/06/27 13:27:09;;;;;;;24.35;15.82;;;;;;;;;;5054834;28;20021;-71
2022/06/27 13:29:35;;;;;;;22.13;16.05;;;;;;;;;;5057172;28;20025;-72
2022/06/27 13:32:02;;;;;;;22.08;15.80;;;;;;;;;;5056815;28;20474;-72
2022/06/27 13:34:29;;;;;;;19.77;15.38;;;;;;;;;;5053808;28;20045;-72
2022/06/27 13:36:55;;;;;;;25.48;18.40;;;;;;;;;;5054568;28;20138;-72
2022/06/27 13:39:24;;;;;;;24.73;17.23;;;;;;;;;;5055400;28;20017;-70
2022/06/27 13:41:50;;;;;;;25.52;17.55;;;;;;;;;;5053542;28;20025;-71
2022/06/27 13:44:16;;;;;;;28.92;17.63;;;;;;;;;;5053739;28;20056;-71
2022/06/27 13:46:42;;;;;;;28.70;21.20;;;;;;;;;;5053551;28;20021;-71
2022/06/27 13:49:08;;;;;;;23.48;17.05;;;;;;;;;;5054836;28;20030;-71
2022/06/27 13:51:34;;;;;;;23.13;18.95;;;;;;;;;;5058399;28;20021;-73
2022/06/27 13:54:00;;;;;;;23.40;18.35;;;;;;;;;;5062796;28;20120;-72
2022/06/27 13:56:26;;;;;;;24.58;18.98;;;;;;;;;;5058803;28;20064;-71
2022/06/27 13:58:52;;;;;;;24.65;19.48;;;;;;;;;;5053924;28;20044;-71
2022/06/27 14:01:18;;;;;;;24.83;18.83;;;;;;;;;;5054672;28;20021;-72
2022/06/27 14:03:44;;;;;;;30.17;18.75;;;;;;;;;;5053545;28;20021;-70
2022/06/27 14:08:54;;;;;;;28.45;21.85;;;;;;;;;;5054767;28;20032;-72
2022/06/27 14:11:20;;;;;;;28.05;20.77;;;;;;;;;;5056038;28;20425;-71
2022/06/27 14:13:46;;;;;;;28.60;20.35;;;;;;;;;;5059222;28;20131;-71
2022/06/27 14:16:12;;;;;;;26.27;21.17;;;;;;;;;;5053887;28;20398;-70
2022/06/27 14:18:38;;;;;;;31.00;22.50;;;;;;;;;;5053423;28;20105;-72
2022/06/27 14:21:04;;;;;;;23.27;18.50;;;;;;;;;;5052842;28;20029;-71
2022/06/27 14:23:30;;;;;;;27.58;21.23;;;;;;;;;;5053257;28;20053;-70
2022/06/27 14:25:56;;;;;;;35.40;22.88;;;;;;;;;;5052593;28;20078;-71
2022/06/27 14:28:22;;;;;;;26.05;18.95;;;;;;;;;;5053955;28;20091;-71
2022/06/27 14:30:48;;;;;;;26.55;20.63;;;;;;;;;;5053369;28;20025;-71
2022/06/27 14:33:14;;;;;;;27.95;17.83;;;;;;;;;;5053041;28;20111;-72
2022/06/27 14:35:40;;;;;;;27.23;17.63;;;;;;;;;;5052724;28;20028;-71
2022/06/27 14:38:06;;;;;;;26.23;16.27;;;;;;;;;;5053299;28;20063;-71
2022/06/27 14:40:32;;;;;;;23.77;16.92;;;;;;;;;;5053074;28;20425;-71
2022/06/27 14:42:58;;;;;;;23.15;16.13;;;;;;;;;;5053317;28;20040;-70
2022/06/27 14:45:24;;;;;;;21.63;15.55;;;;;;;;;;5052332;28;20068;-71
2022/06/27 14:47:50;;;;;;;20.80;14.57;;;;;;;;;;5052849;28;20486;-72